Time;durP1;ratioP1;P1;durP2;ratioP2;P2;SDS_P1;SDS_P2;PMS_P1;PMS_P2;Temp;Humidity;BMP_temperature;BMP_pressure;BME280_temperature;BME280_humidity;BME280_pressure;Samples;Min_cycle;Max_cycle;Signal;HPM_P1;HPM_P2
2021/04/08 00:01:11;;;;;;;15.02;4.22;;;;;;;;;;5115378;28;20028;-65
2021/04/08 00:03:36;;;;;;;8.95;4.07;;;;;;;;;;5115570;28;20011;-65
2021/04/08 00:06:02;;;;;;;8.10;3.78;;;;;;;;;;5104650;28;20050;-65
2021/04/08 00:08:27;;;;;;;10.70;3.65;;;;;;;;;;5093797;28;20388;-65
2021/04/08 00:10:52;;;;;;;10.57;3.30;;;;;;;;;;5094416;28;20456;-65
2021/04/08 00:13:17;;;;;;;10.30;3.70;;;;;;;;;;5094982;28;20013;-65
2021/04/08 00:15:43;;;;;;;8.40;2.90;;;;;;;;;;5094855;28;20032;-65
2021/04/08 00:18:08;;;;;;;8.07;3.40;;;;;;;;;;5093971;28;20012;-65
2021/04/08 00:20:33;;;;;;;13.35;3.67;;;;;;;;;;5094650;28;20026;-65
2021/04/08 00:22:59;;;;;;;9.43;3.38;;;;;;;;;;5094890;28;20108;-65
2021/04/08 00:25:24;;;;;;;8.23;3.83;;;;;;;;;;5094404;28;20012;-65
2021/04/08 00:27:49;;;;;;;10.52;3.10;;;;;;;;;;5094728;28;20038;-65
2021/04/08 00:30:15;;;;;;;8.05;3.20;;;;;;;;;;5093944;28;20063;-65
2021/04/08 00:32:40;;;;;;;6.05;3.10;;;;;;;;;;5094383;28;20016;-65
2021/04/08 00:35:06;;;;;;;13.50;3.53;;;;;;;;;;5094023;28;20055;-65
2021/04/08 00:37:31;;;;;;;10.23;2.85;;;;;;;;;;5094325;28;20027;-65
2021/04/08 00:39:56;;;;;;;9.52;3.10;;;;;;;;;;5072225;28;20523;-65
2021/04/08 00:42:22;;;;;;;8.90;3.22;;;;;;;;;;5074427;28;20009;-65
2021/04/08 00:44:47;;;;;;;9.13;3.05;;;;;;;;;;5073552;28;20117;-65
2021/04/08 00:47:12;;;;;;;8.75;2.83;;;;;;;;;;5073842;28;20035;-65
2021/04/08 00:49:38;;;;;;;12.88;3.42;;;;;;;;;;5073254;28;20151;-65
2021/04/08 00:52:03;;;;;;;12.13;2.97;;;;;;;;;;5073073;28;20035;-65
2021/04/08 00:54:29;;;;;;;6.60;3.28;;;;;;;;;;5073825;28;20027;-65
2021/04/08 00:56:54;;;;;;;16.30;3.28;;;;;;;;;;5073645;28;20048;-65
2021/04/08 00:59:19;;;;;;;10.98;2.85;;;;;;;;;;5073157;28;20032;-65
2021/04/08 01:01:45;;;;;;;7.53;2.78;;;;;;;;;;5073077;28;20024;-65
2021/04/08 01:04:10;;;;;;;8.18;2.38;;;;;;;;;;5073575;28;20048;-65
2021/04/08 01:06:35;;;;;;;5.85;2.90;;;;;;;;;;5073622;28;20033;-65
2021/04/08 01:09:00;;;;;;;7.25;2.53;;;;;;;;;;5073472;28;20523;-65
2021/04/08 01:11:26;;;;;;;6.05;2.22;;;;;;;;;;5073325;28;20039;-65
2021/04/08 01:13:52;;;;;;;6.95;2.58;;;;;;;;;;5073580;28;20040;-66
2021/04/08 01:16:22;;;;;;;6.25;2.47;;;;;;;;;;5073295;28;20024;-65
2021/04/08 01:19:20;;;;;;;4.43;2.20;;;;;;;;;;5073493;28;20024;-66
2021/04/08 01:21:48;;;;;;;5.93;2.10;;;;;;;;;;5027725;28;20048;-66
2021/04/08 01:24:34;;;;;;;6.07;3.05;;;;;;;;;;5086974;28;20035;-65
2021/04/08 01:27:02;;;;;;;6.07;2.40;;;;;;;;;;5093262;28;20050;-65
2021/04/08 01:29:42;;;;;;;7.43;2.40;;;;;;;;;;5093426;28;20020;-65
2021/04/08 01:32:09;;;;;;;5.03;1.90;;;;;;;;;;5093041;28;20062;-65
2021/04/08 01:34:38;;;;;;;7.45;2.08;;;;;;;;;;5093245;28;20024;-65
2021/04/08 01:37:06;;;;;;;6.35;2.45;;;;;;;;;;5093179;28;20085;-65
2021/04/08 01:39:31;;;;;;;8.02;2.20;;;;;;;;;;5105104;28;20047;-65
2021/04/08 01:41:57;;;;;;;5.50;2.33;;;;;;;;;;5113072;28;20039;-65
2021/04/08 01:44:24;;;;;;;7.53;2.10;;;;;;;;;;5113416;28;20032;-65
2021/04/08 01:46:52;;;;;;;7.30;2.35;;;;;;;;;;5113438;28;20035;-65
2021/04/08 01:49:18;;;;;;;6.63;2.28;;;;;;;;;;5113601;28;20020;-66
2021/04/08 01:51:44;;;;;;;6.50;2.10;;;;;;;;;;5112939;28;20024;-66
2021/04/08 01:54:12;;;;;;;7.93;2.60;;;;;;;;;;5113312;28;20479;-66
2021/04/08 01:56:39;;;;;;;5.20;2.08;;;;;;;;;;5113273;28;20051;-65
2021/04/08 01:59:05;;;;;;;8.35;2.40;;;;;;;;;;5113050;28;20046;-65
2021/04/08 02:01:30;;;;;;;11.25;2.55;;;;;;;;;;5112593;28;20032;-65
2021/04/08 02:03:56;;;;;;;8.05;2.70;;;;;;;;;;5113088;28;20020;-65
2021/04/08 02:06:23;;;;;;;5.75;2.25;;;;;;;;;;5113035;28;20057;-65
2021/04/08 02:08:50;;;;;;;5.47;2.20;;;;;;;;;;5113092;28;20031;-65
2021/04/08 02:11:16;;;;;;;5.82;2.28;;;;;;;;;;5113007;28;20042;-66
2021/04/08 02:13:44;;;;;;;6.32;2.63;;;;;;;;;;5110538;28;20388;-66
2021/04/08 02:16:10;;;;;;;12.20;2.20;;;;;;;;;;5092426;28;20035;-65
2021/04/08 02:18:36;;;;;;;6.38;2.33;;;;;;;;;;5092168;28;20016;-65
2021/04/08 02:21:02;;;;;;;7.75;2.40;;;;;;;;;;5092190;28;20512;-65
2021/04/08 02:23:29;;;;;;;7.53;2.13;;;;;;;;;;5099415;28;20506;-65
2021/04/08 02:25:55;;;;;;;6.65;2.38;;;;;;;;;;5112679;28;20037;-65
2021/04/08 02:28:21;;;;;;;8.15;2.30;;;;;;;;;;5112901;28;20142;-65
2021/04/08 02:30:48;;;;;;;7.53;2.38;;;;;;;;;;5112890;28;20390;-65
2021/04/08 02:33:24;;;;;;;7.25;2.38;;;;;;;;;;5115354;28;20098;-65
2021/04/08 02:35:50;;;;;;;5.43;1.85;;;;;;;;;;5116908;28;20035;-65
2021/04/08 02:38:16;;;;;;;6.97;2.50;;;;;;;;;;5116847;28;20100;-65
2021/04/08 02:40:41;;;;;;;8.18;2.35;;;;;;;;;;5116551;28;20070;-65
2021/04/08 02:43:08;;;;;;;6.72;2.70;;;;;;;;;;5116733;28;20058;-66
2021/04/08 02:45:33;;;;;;;5.65;2.10;;;;;;;;;;5116925;28;20012;-65
2021/04/08 02:47:58;;;;;;;7.82;2.08;;;;;;;;;;5116730;28;20040;-65
2021/04/08 02:50:24;;;;;;;11.98;2.25;;;;;;;;;;5116721;28;20111;-65
2021/04/08 02:52:49;;;;;;;6.75;2.25;;;;;;;;;;5116592;28;20783;-65
2021/04/08 02:55:18;;;;;;;12.52;2.50;;;;;;;;;;5116413;28;20040;-65
2021/04/08 02:57:47;;;;;;;3.85;1.83;;;;;;;;;;5116856;28;20055;-65
2021/04/08 03:00:13;;;;;;;9.80;2.40;;;;;;;;;;5116587;28;20016;-65
2021/04/08 03:02:39;;;;;;;6.85;2.38;;;;;;;;;;5116262;28;20679;-65
2021/04/08 03:05:08;;;;;;;7.38;2.40;;;;;;;;;;5116041;28;20035;-65
2021/04/08 03:07:36;;;;;;;4.93;1.92;;;;;;;;;;5116454;28;20124;-65
2021/04/08 03:10:06;;;;;;;6.45;2.13;;;;;;;;;;5116258;28;20038;-65
2021/04/08 03:12:33;;;;;;;4.93;2.10;;;;;;;;;;5116501;28;20065;-66
2021/04/08 03:14:59;;;;;;;5.93;2.08;;;;;;;;;;5115917;28;20019;-65
2021/04/08 03:17:25;;;;;;;4.65;2.30;;;;;;;;;;5116285;28;20126;-65
2021/04/08 03:19:52;;;;;;;4.93;2.03;;;;;;;;;;5115729;28;20670;-65
2021/04/08 03:22:19;;;;;;;3.67;1.67;;;;;;;;;;5116219;28;20028;-65
2021/04/08 03:24:45;;;;;;;4.45;1.95;;;;;;;;;;5097185;28;20032;-65
2021/04/08 03:27:11;;;;;;;4.10;1.95;;;;;;;;;;5095875;28;20032;-65
2021/04/08 03:29:38;;;;;;;8.13;1.90;;;;;;;;;;5095675;28;20016;-65
2021/04/08 03:32:04;;;;;;;5.25;2.20;;;;;;;;;;5095530;28;20035;-65
2021/04/08 03:34:30;;;;;;;6.38;2.65;;;;;;;;;;5095471;28;20804;-65
2021/04/08 03:36:55;;;;;;;9.68;2.55;;;;;;;;;;5095399;28;20031;-65
2021/04/08 03:39:21;;;;;;;6.82;2.65;;;;;;;;;;5095308;28;20093;-65
2021/04/08 03:41:46;;;;;;;5.72;2.13;;;;;;;;;;5095854;28;20793;-65
2021/04/08 03:44:13;;;;;;;8.07;2.22;;;;;;;;;;5077168;28;20020;-65
2021/04/08 03:46:39;;;;;;;7.72;2.25;;;;;;;;;;5094817;28;20120;-65
2021/04/08 03:49:06;;;;;;;6.82;2.40;;;;;;;;;;5094370;28;20035;-65
2021/04/08 03:51:33;;;;;;;5.82;2.17;;;;;;;;;;5095177;28;20054;-65
2021/04/08 03:53:59;;;;;;;13.88;2.95;;;;;;;;;;5095154;28;20032;-65
2021/04/08 03:56:24;;;;;;;5.65;2.35;;;;;;;;;;5094695;28;20040;-65
2021/04/08 03:58:50;;;;;;;6.97;2.63;;;;;;;;;;5095090;28;20078;-65
2021/04/08 04:01:16;;;;;;;7.95;3.38;;;;;;;;;;5094903;28;20075;-66
2021/04/08 04:03:42;;;;;;;5.97;2.45;;;;;;;;;;5094913;28;20064;-65
2021/04/08 04:06:08;;;;;;;6.53;2.20;;;;;;;;;;5094477;28;20020;-65
2021/04/08 04:08:33;;;;;;;7.95;2.25;;;;;;;;;;5095074;28;20032;-65
2021/04/08 04:10:59;;;;;;;4.60;2.08;;;;;;;;;;5094709;28;20081;-65
2021/04/08 04:13:24;;;;;;;9.52;2.53;;;;;;;;;;5094803;28;20655;-65
2021/04/08 04:15:51;;;;;;;6.45;2.00;;;;;;;;;;5094250;28;20040;-65
2021/04/08 04:18:17;;;;;;;7.25;2.75;;;;;;;;;;5094798;28;20032;-65
2021/04/08 04:20:43;;;;;;;9.45;2.70;;;;;;;;;;5094860;28;20020;-65
2021/04/08 04:23:09;;;;;;;7.70;2.00;;;;;;;;;;5099375;28;20081;-65
2021/04/08 04:25:34;;;;;;;6.53;1.80;;;;;;;;;;5114942;28;20080;-65
2021/04/08 04:27:59;;;;;;;7.57;2.72;;;;;;;;;;5100950;28;20035;-66
2021/04/08 04:30:25;;;;;;;5.57;2.00;;;;;;;;;;5110147;28;20036;-65
2021/04/08 04:32:53;;;;;;;4.40;1.95;;;;;;;;;;5114970;28;20484;-65
2021/04/08 04:35:19;;;;;;;5.53;2.38;;;;;;;;;;5114918;28;20008;-65
2021/04/08 04:37:44;;;;;;;9.50;2.20;;;;;;;;;;5114015;28;20035;-65
2021/04/08 04:40:10;;;;;;;6.63;2.10;;;;;;;;;;5114715;28;20046;-65
2021/04/08 04:42:35;;;;;;;9.15;2.75;;;;;;;;;;5096416;28;20451;-65
2021/04/08 04:45:01;;;;;;;10.70;3.00;;;;;;;;;;5114497;28;20035;-65
2021/04/08 04:47:26;;;;;;;6.88;2.33;;;;;;;;;;5114328;28;20043;-65
2021/04/08 04:49:52;;;;;;;9.68;2.53;;;;;;;;;;5114242;28;20023;-65
2021/04/08 04:52:17;;;;;;;12.80;2.65;;;;;;;;;;5114443;28;20031;-65
2021/04/08 04:54:43;;;;;;;10.95;2.70;;;;;;;;;;5113785;28;20102;-66
2021/04/08 04:57:08;;;;;;;9.15;2.20;;;;;;;;;;5113957;28;20114;-65
2021/04/08 04:59:33;;;;;;;8.10;2.47;;;;;;;;;;5114755;28;20478;-65
2021/04/08 05:01:59;;;;;;;6.32;2.30;;;;;;;;;;5114255;28;20035;-66
2021/04/08 05:04:24;;;;;;;9.07;2.50;;;;;;;;;;5114194;28;20024;-65
2021/04/08 05:06:50;;;;;;;8.52;1.98;;;;;;;;;;5114036;28;20406;-65
2021/04/08 05:09:15;;;;;;;5.07;1.85;;;;;;;;;;5113709;28;20447;-65
2021/04/08 05:11:40;;;;;;;7.53;2.38;;;;;;;;;;5114058;28;20461;-65
2021/04/08 05:14:06;;;;;;;7.28;2.15;;;;;;;;;;5114088;28;20032;-65
2021/04/08 05:16:31;;;;;;;5.13;1.70;;;;;;;;;;5113891;28;20479;-65
2021/04/08 05:18:56;;;;;;;8.48;2.17;;;;;;;;;;5113533;28;20016;-66
2021/04/08 05:21:22;;;;;;;4.63;2.25;;;;;;;;;;5113717;28;20043;-66
2021/04/08 05:23:47;;;;;;;8.65;1.83;;;;;;;;;;5110937;28;20372;-66
2021/04/08 05:26:12;;;;;;;7.28;2.20;;;;;;;;;;5113697;28;20447;-65
2021/04/08 05:28:37;;;;;;;8.63;1.85;;;;;;;;;;5113170;28;20125;-66
2021/04/08 05:31:03;;;;;;;5.55;2.97;;;;;;;;;;5113882;28;20024;-65
2021/04/08 05:33:29;;;;;;;7.68;2.83;;;;;;;;;;5113723;28;20016;-66
2021/04/08 05:35:54;;;;;;;5.53;1.92;;;;;;;;;;5113229;28;20027;-66
2021/04/08 05:38:19;;;;;;;4.03;1.70;;;;;;;;;;5113279;28;20110;-66
2021/04/08 05:40:44;;;;;;;10.25;2.03;;;;;;;;;;5113347;28;20015;-66
2021/04/08 05:43:10;;;;;;;4.32;1.60;;;;;;;;;;5113577;28;20108;-65
2021/04/08 05:45:35;;;;;;;5.28;1.67;;;;;;;;;;5113343;28;20035;-65
2021/04/08 05:48:00;;;;;;;8.82;1.85;;;;;;;;;;5112966;28;20080;-65
2021/04/08 05:50:26;;;;;;;11.38;2.33;;;;;;;;;;5113090;28;20032;-66
2021/04/08 05:52:51;;;;;;;5.97;2.00;;;;;;;;;;5113342;28;20062;-66
2021/04/08 05:55:16;;;;;;;2.75;1.67;;;;;;;;;;5113223;28;20026;-65
2021/04/08 05:57:42;;;;;;;4.97;1.67;;;;;;;;;;5113289;28;20031;-65
2021/04/08 06:00:08;;;;;;;5.68;1.95;;;;;;;;;;5112707;28;20447;-65
2021/04/08 06:02:34;;;;;;;4.78;1.80;;;;;;;;;;5113090;28;20464;-66
2021/04/08 06:04:59;;;;;;;4.43;2.25;;;;;;;;;;5113176;28;20035;-66
2021/04/08 06:07:25;;;;;;;4.68;1.90;;;;;;;;;;5112251;28;20187;-66
2021/04/08 06:09:50;;;;;;;8.85;1.77;;;;;;;;;;5112655;28;20084;-66
2021/04/08 06:12:15;;;;;;;11.90;3.25;;;;;;;;;;5113413;28;20035;-66
2021/04/08 06:14:41;;;;;;;6.00;1.58;;;;;;;;;;5112971;28;20027;-66
2021/04/08 06:17:06;;;;;;;8.07;1.98;;;;;;;;;;5113374;28;20465;-65
2021/04/08 06:19:32;;;;;;;4.80;1.50;;;;;;;;;;5112747;28;20036;-66
2021/04/08 06:21:58;;;;;;;6.45;2.13;;;;;;;;;;5104137;28;20353;-65
2021/04/08 06:24:23;;;;;;;8.15;2.17;;;;;;;;;;5107838;28;20008;-65
2021/04/08 06:26:49;;;;;;;8.02;2.30;;;;;;;;;;5112675;28;20356;-66
2021/04/08 06:29:14;;;;;;;9.07;2.53;;;;;;;;;;5113204;28;20032;-65
2021/04/08 06:31:39;;;;;;;8.73;2.25;;;;;;;;;;5112546;28;20016;-66
2021/04/08 06:34:04;;;;;;;10.50;2.13;;;;;;;;;;5112810;28;20496;-66
2021/04/08 06:36:30;;;;;;;9.13;2.45;;;;;;;;;;5112882;28;20032;-65
2021/04/08 06:38:55;;;;;;;4.78;2.28;;;;;;;;;;5112495;28;20116;-66
2021/04/08 06:41:20;;;;;;;6.53;1.80;;;;;;;;;;5112595;28;20032;-66
2021/04/08 06:43:46;;;;;;;7.22;2.53;;;;;;;;;;5106145;28;20017;-65
2021/04/08 06:46:15;;;;;;;13.30;3.83;;;;;;;;;;5082927;28;20028;-66
2021/04/08 06:49:04;;;;;;;9.52;2.58;;;;;;;;;;5092454;28;20044;-66
2021/04/08 06:51:32;;;;;;;7.50;2.63;;;;;;;;;;5091931;28;20036;-66
2021/04/08 06:54:00;;;;;;;11.32;4.15;;;;;;;;;;5091987;28;20090;-66
2021/04/08 06:56:26;;;;;;;8.75;3.00;;;;;;;;;;5092291;28;20372;-66
2021/04/08 06:58:51;;;;;;;19.83;8.32;;;;;;;;;;5092336;28;20081;-66
2021/04/08 07:01:18;;;;;;;30.38;15.23;;;;;;;;;;5092000;28;20036;-66
2021/04/08 07:03:44;;;;;;;5.32;2.97;;;;;;;;;;5091983;28;20016;-65
2021/04/08 07:06:09;;;;;;;7.60;2.55;;;;;;;;;;5091872;28;20031;-65
2021/04/08 07:08:34;;;;;;;9.43;2.53;;;;;;;;;;5092055;28;20040;-66
2021/04/08 07:11:00;;;;;;;14.05;3.05;;;;;;;;;;5091680;28;20024;-66
2021/04/08 07:13:26;;;;;;;6.60;2.50;;;;;;;;;;5092066;28;20030;-66
2021/04/08 07:15:53;;;;;;;4.78;2.08;;;;;;;;;;5092104;28;20036;-65
2021/04/08 07:18:18;;;;;;;8.18;2.90;;;;;;;;;;5093237;28;20073;-66
2021/04/08 07:20:43;;;;;;;9.18;2.95;;;;;;;;;;5095683;28;20024;-66
2021/04/08 07:23:10;;;;;;;9.02;2.70;;;;;;;;;;5100064;28;20085;-66
2021/04/08 07:25:35;;;;;;;10.63;2.78;;;;;;;;;;5097867;28;20084;-66
2021/04/08 07:28:00;;;;;;;5.82;2.22;;;;;;;;;;5116109;28;20475;-66
2021/04/08 07:30:26;;;;;;;6.43;1.98;;;;;;;;;;5115973;28;20059;-66
2021/04/08 07:32:59;;;;;;;5.63;2.30;;;;;;;;;;5115338;28;20023;-67
2021/04/08 07:35:24;;;;;;;3.83;1.92;;;;;;;;;;5091928;28;20031;-66
2021/04/08 07:37:54;;;;;;;5.32;2.10;;;;;;;;;;5078879;28;20039;-66
2021/04/08 07:40:20;;;;;;;5.80;2.17;;;;;;;;;;5074747;28;20072;-66
2021/04/08 07:42:46;;;;;;;7.32;2.40;;;;;;;;;;5075071;28;20040;-66
2021/04/08 07:45:23;;;;;;;10.15;2.20;;;;;;;;;;5066989;28;20032;-66
2021/04/08 07:47:59;;;;;;;7.68;2.10;;;;;;;;;;5074023;28;20048;-66
2021/04/08 07:50:25;;;;;;;8.20;2.33;;;;;;;;;;5074171;28;20036;-66
2021/04/08 07:52:50;;;;;;;7.95;2.40;;;;;;;;;;5073613;28;20473;-66
2021/04/08 07:55:22;;;;;;;5.40;2.83;;;;;;;;;;5073714;28;20036;-67
2021/04/08 07:57:59;;;;;;;6.03;2.55;;;;;;;;;;5077170;28;20012;-66
2021/04/08 08:00:27;;;;;;;8.10;2.92;;;;;;;;;;5090912;28;20408;-66
2021/04/08 08:02:53;;;;;;;8.70;2.45;;;;;;;;;;5084307;28;20040;-66
2021/04/08 08:05:22;;;;;;;15.93;5.78;;;;;;;;;;5072828;28;20066;-67
2021/04/08 08:07:47;;;;;;;5.65;2.50;;;;;;;;;;5072968;28;20047;-65
2021/04/08 08:10:13;;;;;;;9.98;3.65;;;;;;;;;;5072845;28;20662;-65
2021/04/08 08:12:39;;;;;;;5.03;1.98;;;;;;;;;;5072998;28;20027;-65
2021/04/08 08:15:19;;;;;;;4.68;2.20;;;;;;;;;;5072840;28;20020;-65
2021/04/08 08:17:45;;;;;;;5.78;2.17;;;;;;;;;;5074679;28;20039;-65
2021/04/08 08:20:11;;;;;;;5.68;1.95;;;;;;;;;;5074204;28;20392;-65
2021/04/08 08:22:37;;;;;;;4.60;2.25;;;;;;;;;;5090327;28;20032;-65
2021/04/08 08:25:03;;;;;;;6.93;2.53;;;;;;;;;;5094292;28;20368;-66
2021/04/08 08:27:40;;;;;;;7.22;2.10;;;;;;;;;;5090888;28;20054;-65
2021/04/08 08:30:10;;;;;;;7.43;2.70;;;;;;;;;;5104006;28;20066;-66
2021/04/08 08:32:36;;;;;;;5.80;2.90;;;;;;;;;;5100256;28;20035;-65
2021/04/08 08:35:01;;;;;;;7.30;2.90;;;;;;;;;;5085494;28;20047;-66
2021/04/08 08:37:27;;;;;;;5.97;2.50;;;;;;;;;;5101767;28;20078;-66
2021/04/08 08:39:53;;;;;;;8.68;2.35;;;;;;;;;;5081429;28;20059;-66
2021/04/08 08:42:19;;;;;;;9.77;2.28;;;;;;;;;;5084989;28;20040;-65
2021/04/08 08:44:45;;;;;;;4.63;2.60;;;;;;;;;;5082971;28;20099;-65
2021/04/08 08:47:13;;;;;;;5.93;2.55;;;;;;;;;;5083602;28;20143;-65
2021/04/08 08:49:41;;;;;;;8.45;2.55;;;;;;;;;;5081658;28;20032;-65
2021/04/08 08:52:08;;;;;;;10.30;3.20;;;;;;;;;;5071399;28;20113;-67
2021/04/08 08:54:33;;;;;;;7.90;3.40;;;;;;;;;;5075413;28;20032;-67
2021/04/08 08:56:59;;;;;;;6.82;3.75;;;;;;;;;;5077023;28;20046;-67
2021/04/08 08:59:26;;;;;;;11.38;5.30;;;;;;;;;;5085031;28;20023;-67
2021/04/08 09:01:52;;;;;;;17.75;5.82;;;;;;;;;;5083774;28;20358;-67
2021/04/08 09:04:17;;;;;;;7.15;3.78;;;;;;;;;;5085354;28;20535;-67
2021/04/08 09:06:43;;;;;;;8.65;3.83;;;;;;;;;;5084755;28;20024;-67
2021/04/08 09:09:12;;;;;;;6.22;3.60;;;;;;;;;;5085613;28;20032;-67
2021/04/08 09:11:38;;;;;;;11.55;4.70;;;;;;;;;;5086148;28;20032;-67
2021/04/08 09:14:04;;;;;;;7.47;3.55;;;;;;;;;;5080948;28;20433;-66
2021/04/08 09:16:30;;;;;;;10.68;4.05;;;;;;;;;;5082311;28;20038;-65
2021/04/08 09:18:58;;;;;;;7.78;4.28;;;;;;;;;;5067047;28;20051;-66
2021/04/08 09:21:24;;;;;;;9.02;4.03;;;;;;;;;;5070700;28;20108;-66
2021/04/08 09:24:05;;;;;;;8.68;3.80;;;;;;;;;;5091571;28;20100;-66
2021/04/08 09:26:35;;;;;;;11.13;4.78;;;;;;;;;;5079816;28;20036;-66
2021/04/08 09:29:00;;;;;;;10.30;3.30;;;;;;;;;;5079088;28;20036;-66
2021/04/08 09:31:25;;;;;;;6.25;3.90;;;;;;;;;;5076666;28;20036;-65
2021/04/08 09:33:54;;;;;;;7.43;3.10;;;;;;;;;;5079437;28;20050;-66
2021/04/08 09:36:20;;;;;;;8.57;3.28;;;;;;;;;;5076070;28;20043;-66
2021/04/08 09:38:45;;;;;;;8.30;3.85;;;;;;;;;;5070829;28;20047;-66
2021/04/08 09:41:10;;;;;;;6.55;3.30;;;;;;;;;;5076082;28;20024;-66
2021/04/08 09:43:36;;;;;;;9.23;3.58;;;;;;;;;;5060963;28;20380;-66
2021/04/08 09:46:03;;;;;;;8.70;4.18;;;;;;;;;;5079280;28;20308;-66
2021/04/08 09:48:42;;;;;;;9.77;4.20;;;;;;;;;;5079843;28;20427;-66
2021/04/08 09:51:07;;;;;;;7.45;3.53;;;;;;;;;;5078788;28;20032;-66
2021/04/08 09:53:39;;;;;;;13.10;4.97;;;;;;;;;;5080199;28;20042;-66
2021/04/08 09:56:05;;;;;;;6.80;3.85;;;;;;;;;;5080080;28;20031;-66
2021/04/08 09:58:32;;;;;;;7.30;4.43;;;;;;;;;;5079006;28;20368;-66
2021/04/08 10:00:58;;;;;;;7.47;4.30;;;;;;;;;;5079189;28;20034;-66
2021/04/08 10:03:27;;;;;;;9.00;4.55;;;;;;;;;;5080312;28;20028;-66
2021/04/08 10:05:52;;;;;;;7.15;4.80;;;;;;;;;;5079285;28;20059;-65
2021/04/08 10:08:19;;;;;;;8.77;4.38;;;;;;;;;;5079787;28;20799;-65
2021/04/08 10:10:45;;;;;;;8.57;3.40;;;;;;;;;;5079210;28;20028;-65
2021/04/08 10:13:13;;;;;;;6.68;3.70;;;;;;;;;;5072773;28;20392;-65
2021/04/08 10:15:38;;;;;;;11.38;4.07;;;;;;;;;;5070862;28;20032;-65
2021/04/08 10:18:09;;;;;;;8.93;5.35;;;;;;;;;;5079697;28;20035;-65
2021/04/08 10:20:34;;;;;;;8.25;4.63;;;;;;;;;;5080271;28;20098;-65
2021/04/08 10:23:00;;;;;;;12.30;5.47;;;;;;;;;;5080969;28;20523;-65
2021/04/08 10:25:25;;;;;;;12.75;6.18;;;;;;;;;;5076787;28;20020;-65
2021/04/08 10:27:54;;;;;;;13.45;4.72;;;;;;;;;;5078735;28;20150;-65
2021/04/08 10:30:19;;;;;;;9.10;4.38;;;;;;;;;;5074257;28;20249;-65
2021/04/08 10:32:45;;;;;;;8.85;3.53;;;;;;;;;;5078786;28;20240;-65
2021/04/08 10:35:27;;;;;;;11.02;3.63;;;;;;;;;;5077566;28;20085;-65
2021/04/08 10:37:58;;;;;;;8.35;3.47;;;;;;;;;;5066071;28;20128;-67
2021/04/08 10:40:24;;;;;;;7.90;3.20;;;;;;;;;;5074761;28;20056;-67
2021/04/08 10:42:49;;;;;;;6.68;3.15;;;;;;;;;;5075307;28;20039;-67
2021/04/08 10:45:15;;;;;;;12.75;4.80;;;;;;;;;;5078701;28;20027;-67
2021/04/08 10:47:40;;;;;;;8.15;3.10;;;;;;;;;;5075036;28;20048;-67
2021/04/08 10:50:05;;;;;;;9.95;3.83;;;;;;;;;;5065660;28;20082;-67
2021/04/08 10:52:35;;;;;;;11.57;3.78;;;;;;;;;;5077879;28;20107;-67
2021/04/08 10:55:01;;;;;;;13.60;4.70;;;;;;;;;;5079651;28;20063;-67
2021/04/08 10:57:27;;;;;;;14.05;4.47;;;;;;;;;;5082248;28;20143;-66
2021/04/08 10:59:53;;;;;;;7.60;3.08;;;;;;;;;;5075559;28;20086;-67
2021/04/08 11:02:20;;;;;;;10.00;3.58;;;;;;;;;;5083384;28;20476;-67
2021/04/08 11:04:45;;;;;;;11.73;3.08;;;;;;;;;;5082442;28;20522;-67
2021/04/08 11:07:10;;;;;;;11.80;3.15;;;;;;;;;;5083102;28;20047;-66
2021/04/08 11:09:36;;;;;;;8.80;2.33;;;;;;;;;;5074919;28;20029;-67
2021/04/08 11:12:14;;;;;;;10.02;2.45;;;;;;;;;;5077916;28;20040;-67
2021/04/08 11:14:43;;;;;;;10.07;2.78;;;;;;;;;;5081948;28;20024;-66
2021/04/08 11:17:09;;;;;;;9.85;2.30;;;;;;;;;;5082468;28;20089;-66
2021/04/08 11:19:36;;;;;;;7.13;3.25;;;;;;;;;;5082589;28;20028;-67
2021/04/08 11:22:01;;;;;;;6.25;3.33;;;;;;;;;;5082307;28;20034;-67
2021/04/08 11:24:26;;;;;;;8.57;3.17;;;;;;;;;;5096088;28;20055;-67
2021/04/08 11:26:53;;;;;;;5.93;3.10;;;;;;;;;;5081672;28;20027;-67
2021/04/08 11:29:22;;;;;;;9.52;3.90;;;;;;;;;;5083180;28;20036;-67
2021/04/08 11:31:58;;;;;;;11.30;3.10;;;;;;;;;;5082096;28;20032;-67
2021/04/08 11:34:23;;;;;;;6.68;3.22;;;;;;;;;;5083139;28;20032;-67
2021/04/08 11:36:53;;;;;;;12.50;3.50;;;;;;;;;;5081564;28;20047;-67
2021/04/08 11:39:18;;;;;;;14.57;3.22;;;;;;;;;;5082405;28;20047;-66
2021/04/08 11:41:43;;;;;;;13.23;3.55;;;;;;;;;;5084266;28;20051;-66
2021/04/08 11:44:11;;;;;;;14.82;3.35;;;;;;;;;;5072834;28;20484;-67
2021/04/08 11:46:36;;;;;;;11.40;3.88;;;;;;;;;;5065057;28;20527;-66
2021/04/08 11:49:02;;;;;;;16.15;2.95;;;;;;;;;;5081621;28;20039;-67
2021/04/08 11:51:30;;;;;;;19.35;3.38;;;;;;;;;;5082351;28;20036;-66
2021/04/08 11:54:06;;;;;;;14.77;3.92;;;;;;;;;;5082956;28;20031;-66
2021/04/08 11:56:31;;;;;;;;;;;;;;;;;;5076047;28;20390;-67
2021/04/08 11:58:56;;;;;;;;;;;;;;;;;;5074132;28;20317;-67
2021/04/08 12:01:21;;;;;;;9.10;2.85;;;;;;;;;;5075729;28;19912;-66
2021/04/08 12:03:48;;;;;;;7.28;3.40;;;;;;;;;;5070920;28;20038;-66
2021/04/08 12:06:13;;;;;;;9.00;3.45;;;;;;;;;;5078996;28;20776;-66
2021/04/08 12:08:45;;;;;;;10.35;3.08;;;;;;;;;;5080515;28;20039;-66
2021/04/08 12:11:12;;;;;;;9.35;2.97;;;;;;;;;;5077287;28;20041;-67
2021/04/08 12:13:37;;;;;;;8.73;3.58;;;;;;;;;;5078994;28;20503;-67
2021/04/08 12:16:04;;;;;;;11.27;3.92;;;;;;;;;;5071462;28;20039;-66
2021/04/08 12:18:30;;;;;;;12.98;3.72;;;;;;;;;;5080669;28;20407;-66
2021/04/08 12:20:56;;;;;;;6.32;3.00;;;;;;;;;;5076024;28;20077;-66
2021/04/08 12:23:25;;;;;;;10.82;3.70;;;;;;;;;;5075586;28;20031;-66
2021/04/08 12:25:55;;;;;;;5.57;2.65;;;;;;;;;;5068585;28;20102;-66
2021/04/08 12:28:21;;;;;;;8.52;3.00;;;;;;;;;;5077625;28;20029;-67
2021/04/08 12:30:56;;;;;;;9.02;2.63;;;;;;;;;;5080106;28;20031;-66
2021/04/08 12:33:21;;;;;;;9.33;2.67;;;;;;;;;;5080751;28;20068;-66
2021/04/08 12:35:47;;;;;;;4.57;2.60;;;;;;;;;;5080687;28;20131;-66
2021/04/08 12:38:12;;;;;;;7.60;3.42;;;;;;;;;;5079518;28;20201;-66
2021/04/08 12:40:38;;;;;;;5.93;2.67;;;;;;;;;;5076436;28;20024;-67
2021/04/08 12:43:03;;;;;;;7.70;2.35;;;;;;;;;;5068035;28;20447;-67
2021/04/08 12:45:28;;;;;;;4.68;3.47;;;;;;;;;;5081454;28;20043;-66
2021/04/08 12:47:54;;;;;;;9.05;2.95;;;;;;;;;;5081110;28;20032;-66
2021/04/08 12:50:19;;;;;;;10.07;3.42;;;;;;;;;;5079522;28;20927;-66
2021/04/08 12:52:44;;;;;;;10.82;3.33;;;;;;;;;;5077791;28;20062;-67
2021/04/08 12:55:10;;;;;;;11.63;4.63;;;;;;;;;;5080192;28;20040;-66
2021/04/08 12:57:35;;;;;;;9.35;4.15;;;;;;;;;;5080479;28;20042;-66
2021/04/08 13:00:01;;;;;;;7.97;3.58;;;;;;;;;;5079430;28;20062;-66
2021/04/08 13:02:26;;;;;;;10.55;3.65;;;;;;;;;;5080832;28;20078;-66
2021/04/08 13:04:51;;;;;;;9.85;4.25;;;;;;;;;;5080033;28;20016;-66
2021/04/08 13:07:16;;;;;;;8.38;3.67;;;;;;;;;;5079922;28;20677;-66
2021/04/08 13:09:43;;;;;;;6.50;3.78;;;;;;;;;;5081169;28;20300;-67
2021/04/08 13:12:08;;;;;;;7.63;3.50;;;;;;;;;;5079522;28;20027;-66
2021/04/08 13:14:34;;;;;;;6.95;3.15;;;;;;;;;;5080572;28;20411;-66
2021/04/08 13:16:59;;;;;;;6.50;1.80;;;;;;;;;;5079481;28;20030;-67
2021/04/08 13:19:24;;;;;;;6.25;1.90;;;;;;;;;;5079658;28;20556;-66
2021/04/08 13:21:49;;;;;;;6.88;1.92;;;;;;;;;;5079403;28;20046;-66
2021/04/08 13:24:15;;;;;;;7.97;2.08;;;;;;;;;;5079615;28;20020;-66
2021/04/08 13:26:40;;;;;;;9.25;2.90;;;;;;;;;;5079691;28;20102;-66
2021/04/08 13:29:06;;;;;;;7.32;2.65;;;;;;;;;;5079429;28;20036;-66
2021/04/08 13:31:31;;;;;;;5.97;2.58;;;;;;;;;;5078355;28;20024;-67
2021/04/08 13:33:56;;;;;;;14.98;4.68;;;;;;;;;;5079114;28;20023;-66
2021/04/08 13:36:22;;;;;;;4.80;2.28;;;;;;;;;;5078908;28;20036;-66
2021/04/08 13:38:47;;;;;;;6.43;2.67;;;;;;;;;;5078773;28;20123;-66
2021/04/08 13:41:12;;;;;;;4.65;1.38;;;;;;;;;;5079450;28;20031;-66
2021/04/08 13:43:38;;;;;;;6.93;1.98;;;;;;;;;;5079370;28;20104;-66
2021/04/08 13:46:03;;;;;;;4.38;1.27;;;;;;;;;;5079461;28;20024;-66
2021/04/08 13:48:28;;;;;;;5.32;1.20;;;;;;;;;;5060930;28;20721;-66
2021/04/08 13:50:53;;;;;;;6.07;1.70;;;;;;;;;;5078806;28;20784;-66
2021/04/08 13:53:19;;;;;;;4.63;1.58;;;;;;;;;;5079079;28;20077;-66
2021/04/08 13:55:44;;;;;;;7.07;1.42;;;;;;;;;;5079708;28;20384;-66
2021/04/08 13:58:09;;;;;;;5.97;1.30;;;;;;;;;;5079763;28;20079;-66
2021/04/08 14:00:37;;;;;;;4.85;1.33;;;;;;;;;;5093249;28;20024;-66
2021/04/08 14:03:02;;;;;;;3.78;1.58;;;;;;;;;;5079724;28;20114;-66
2021/04/08 14:05:28;;;;;;;6.07;1.23;;;;;;;;;;5079150;28;20032;-66
2021/04/08 14:07:53;;;;;;;4.82;1.30;;;;;;;;;;5077829;28;20067;-66
2021/04/08 14:10:21;;;;;;;6.07;1.30;;;;;;;;;;5076652;28;20028;-66
2021/04/08 14:12:46;;;;;;;6.32;1.60;;;;;;;;;;5078540;28;21032;-67
2021/04/08 14:15:12;;;;;;;3.90;1.20;;;;;;;;;;5078547;28;20032;-66
2021/04/08 14:17:37;;;;;;;2.47;1.33;;;;;;;;;;5078180;28;20059;-66
2021/04/08 14:20:04;;;;;;;5.45;1.50;;;;;;;;;;5077925;28;20121;-67
2021/04/08 14:22:29;;;;;;;4.10;1.50;;;;;;;;;;5079508;28;20059;-66
2021/04/08 14:24:54;;;;;;;2.85;1.10;;;;;;;;;;5078570;28;20119;-66
2021/04/08 14:27:19;;;;;;;60.22;22.27;;;;;;;;;;5077946;28;20036;-66
2021/04/08 14:29:45;;;;;;;4.88;1.42;;;;;;;;;;5082149;28;20031;-67
2021/04/08 14:32:10;;;;;;;4.00;1.70;;;;;;;;;;5078957;28;20131;-67
2021/04/08 14:34:35;;;;;;;8.35;1.90;;;;;;;;;;5082658;28;20040;-66
2021/04/08 14:37:01;;;;;;;6.13;1.40;;;;;;;;;;5081490;28;20878;-66